Burton, Illinois
Current Conditions -  °F | °C
As of 8:54 PM on Friday 21 Nov 2014 (Local Time) from KUIN Reporting Station
Light Rain Light Rain  
Wind Chill: 27°   Ceiling: 1900
Heat Index: 34°   Visibility: 4mi
Dew Point: 29°   Wind: 9mph
Humidity: 82%   Direction: 160°SSE
Pressure: 30.17"   Gusts: NA
Location:  39.9317°N, 91.2953°W
Report Text: KUIN 220254Z AUTO 16008KT 4SM -RA BKN019 BKN024 OVC028 01/M02 A3017 RMK AO2 SLP224 P0001 60001 I1000 I3000 T00111017 56017
Loading
Personal Weather Stations






























Interactive Weather Map New forecast layout! Learn more

10-Day Weather Forecast

Advertisements
Track Severe Weather on mobile